Kwajalein/Bucholz, Marshall Islands
Current Conditions -  °F | °C
As of 5:20 AM on Monday 22 Dec 2014 (Local Time) from PKWA Reporting Station
Scattered Clouds Scattered Clouds  
Wind Chill: 28°   Ceiling: Unl
Heat Index: 31°   Visibility: 10mi
Dew Point: 22°   Wind: 26mph
Humidity: 68%   Direction: 50°NE
Pressure: 29.74"   Gusts: 32mph
Location:  8.73°N, 167.73°E
Report Text: PKWA 211720Z AUTO 05023G28KT 10SM SCT027 SCT080 28/22 A2974 RMK AO2 T02810217
Loading
Personal Weather Stations






























Interactive Weather Map New forecast layout! Learn more

10-Day Weather Forecast

Advertisements
Track Severe Weather on mobile